Station Historical Data
Daily Summary for June 19, 2017 Units:  English    Metric   Both
« Previous Day
Next Day »
Daily Weekly Monthly Yearly Custom
  High: Low: Average:
Temperature: 85.5 °F 70.1 °F 75.1 °F
Dew Point: 73.8 °F 67.3 °F 70.2 °F
Humidity: 93% 64% 86%
Wind Speed: 1.0mph 0.0mph 0mph
Wind Gust: 3.0mph - -
Wind- - West
Pressure: 30.05 in 29.92 in -
Precipitation: 0.87 in    
Historical Graphs
 
 
Tabular Data for June 19, 2017
Time Temperature Dew Point Pressure Wind Wind Speed Wind Gust Humidity Rainfall Rate (Hourly) Conditions
00:00 73.8 °F 70.7 °F 29.95 in Calm   1.0 mph 90% 0.00 in RA
00:10 73.9 °F 70.8 °F 29.95 in Calm     90% 0.00 in CLR
00:20 74.0 °F 70.9 °F 29.95 in Calm     90% 0.00 in CLR
00:30 74.0 °F 70.6 °F 29.94 in Calm     89% 0.00 in CLR
00:40 74.0 °F 70.5 °F 29.93 in Calm     89% 0.00 in CLR
00:50 73.9 °F 70.5 °F 29.94 in Calm     89% 0.00 in CLR
01:00 73.9 °F 70.5 °F 29.93 in Calm     89% 0.00 in CLR
01:10 73.9 °F 70.5 °F 29.94 in Calm     89% 0.00 in CLR
01:20 73.7 °F 70.3 °F 29.93 in Calm     89% 0.00 in CLR
01:30 73.7 °F 70.5 °F 29.93 in Calm     90% 0.00 in CLR
01:40 73.6 °F 70.5 °F 29.92 in Calm     90% 0.00 in CLR
01:50 73.4 °F 70.3 °F 29.93 in Calm     90% 0.00 in CLR
02:00 73.2 °F 70.1 °F 29.93 in Calm     90% 0.00 in CLR
02:10 73.0 °F 69.9 °F 29.92 in Calm     90% 0.00 in CLR
02:20 72.8 °F 69.7 °F 29.93 in Calm     90% 0.00 in CLR
02:30 72.6 °F 69.5 °F 29.93 in Calm     90% 0.00 in CLR
02:40 72.4 °F 69.3 °F 29.93 in Calm     90% 0.00 in CLR
02:50 72.2 °F 69.4 °F 29.93 in Calm     91% 0.00 in CLR
03:00 72.0 °F 69.2 °F 29.93 in Calm     91% 0.00 in CLR
03:10 71.8 °F 69.0 °F 29.93 in Calm     91% 0.00 in CLR
03:20 71.6 °F 68.8 °F 29.93 in Calm     91% 0.00 in CLR
03:30 71.4 °F 68.6 °F 29.93 in Calm     91% 0.00 in CLR
03:40 71.3 °F 68.5 °F 29.94 in Calm     91% 0.00 in CLR
03:50 71.2 °F 68.4 °F 29.94 in Calm     91% 0.00 in CLR
04:00 71.1 °F 68.3 °F 29.94 in Calm     91% 0.00 in CLR
04:10 70.1 °F 67.3 °F 29.94 in Calm     91% 0.00 in CLR
04:20 70.1 °F 67.3 °F 29.94 in Calm     91% 0.00 in CLR
04:30 70.1 °F 67.3 °F 29.94 in Calm     91% 0.00 in CLR
04:40 70.1 °F 67.3 °F 29.95 in Calm     91% 0.00 in CLR
05:00 70.1 °F 67.3 °F 29.95 in Calm     91% 0.00 in CLR
05:10 70.1 °F 67.3 °F 29.95 in Calm     91% 0.00 in CLR
05:20 70.1 °F 67.3 °F 29.96 in Calm     91% 0.00 in CLR
05:30 70.1 °F 67.3 °F 29.96 in Calm     91% 0.00 in CLR
05:40 70.1 °F 67.3 °F 29.96 in Calm     91% 0.00 in CLR
05:50 70.1 °F 67.3 °F 29.96 in Calm     91% 0.00 in CLR
06:00 70.1 °F 67.3 °F 29.96 in Calm     91% 0.00 in CLR
06:10 70.1 °F 67.3 °F 29.96 in Calm     91% 0.00 in CLR
06:30 70.1 °F 67.3 °F 29.97 in Calm     91% 0.00 in CLR
06:40 70.1 °F 67.3 °F 29.97 in Calm     91% 0.00 in CLR
06:50 70.1 °F 67.3 °F 29.97 in Calm     91% 0.00 in CLR
07:00 70.1 °F 67.3 °F 29.97 in Calm     91% 0.00 in CLR
07:10 70.1 °F 67.3 °F 29.97 in Calm     91% 0.00 in CLR
07:20 70.1 °F 67.3 °F 29.97 in Calm     91% 0.00 in CLR
07:30 70.1 °F 67.3 °F 29.98 in Calm     91% 0.00 in CLR
07:40 70.1 °F 67.3 °F 29.98 in Calm     91% 0.00 in CLR
07:50 70.1 °F 67.3 °F 29.98 in Calm     91% 0.00 in CLR
08:00 70.1 °F 67.3 °F 29.98 in Calm     91% 0.00 in CLR
08:10 70.1 °F 67.3 °F 29.98 in Calm     91% 0.00 in CLR
08:20 70.1 °F 67.3 °F 29.99 in Calm     91% 0.00 in CLR
08:30 70.1 °F 67.3 °F 29.99 in Calm     91% 0.00 in CLR
08:40 70.1 °F 67.3 °F 29.99 in Calm     91% 0.00 in CLR
08:50 70.1 °F 67.3 °F 30.00 in Calm     91% 0.00 in CLR
09:00 70.1 °F 67.3 °F 30.00 in Calm     91% 0.00 in CLR
09:10 70.1 °F 67.3 °F 30.00 in Calm     91% 0.00 in CLR
09:20 70.1 °F 67.3 °F 30.00 in Calm     91% 0.00 in CLR
09:30 75.0 °F 70.5 °F 30.00 in Calm   1.0 mph 86% 0.00 in CLR
09:40 75.2 °F 70.7 °F 30.00 in Calm   1.0 mph 86% 0.00 in CLR
09:50 75.5 °F 70.3 °F 30.00 in Calm   3.0 mph 84% 0.00 in CLR
10:00 75.9 °F 70.7 °F 30.00 in Calm   3.0 mph 84% 0.00 in CLR
10:10 76.2 °F 70.7 °F 29.99 in Calm     83% 0.00 in CLR
10:20 76.4 °F 70.5 °F 29.99 in Calm     82% 0.00 in CLR
10:30 76.7 °F 70.8 °F 29.99 in Calm   2.0 mph 82% 0.00 in CLR
10:40 76.8 °F 70.5 °F 30.00 in Calm   1.0 mph 81% 0.00 in CLR
10:50 77.0 °F 70.4 °F 30.00 in Calm   1.0 mph 80% 0.00 in CLR
11:00 77.2 °F 71.3 °F 30.00 in Calm   1.0 mph 82% 0.00 in CLR
11:10 77.0 °F 70.4 °F 30.01 in Calm   1.0 mph 80% 0.00 in CLR
11:20 77.4 °F 70.7 °F 30.00 in Calm   2.0 mph 80% 0.00 in CLR
11:30 78.6 °F 71.5 °F 30.00 in Calm   2.0 mph 79% 0.00 in CLR
11:40 79.5 °F 71.6 °F 30.00 in Calm   1.0 mph 77% 0.00 in CLR
11:50 79.9 °F 71.7 °F 30.00 in Calm   2.0 mph 76% 0.00 in CLR
12:00 80.3 °F 71.6 °F 30.00 in Calm   1.0 mph 75% 0.00 in CLR
12:10 81.5 °F 72.4 °F 30.00 in Calm   1.0 mph 74% 0.00 in CLR
12:20 81.9 °F 71.6 °F 30.00 in Calm   1.0 mph 71% 0.00 in CLR
12:30 81.9 °F 72.8 °F 29.99 in Calm   2.0 mph 74% 0.00 in CLR
12:40 82.0 °F 72.5 °F 30.00 in Calm   2.0 mph 73% 0.00 in CLR
12:50 82.2 °F 71.8 °F 30.00 in Calm   1.0 mph 71% 0.00 in CLR
13:00 82.8 °F 72.8 °F 30.00 in Calm   1.0 mph 72% 0.00 in CLR
13:10 82.6 °F 71.4 °F 30.00 in Calm   1.0 mph 69% 0.00 in CLR
13:20 83.2 °F 72.8 °F 30.00 in Calm   1.0 mph 71% 0.00 in CLR
13:30 85.0 °F 73.7 °F 30.00 in Calm   1.0 mph 69% 0.00 in CLR
13:40 85.5 °F 71.9 °F 29.99 in Calm   1.0 mph 64% 0.00 in CLR
14:00 85.0 °F 72.8 °F 29.99 in Calm   1.0 mph 67% 0.00 in CLR
14:10 84.7 °F 73.8 °F 29.98 in Calm   1.0 mph 70% 0.00 in CLR
14:20 84.4 °F 72.7 °F 29.98 in Calm   2.0 mph 68% 0.00 in CLR
14:30 84.2 °F 72.5 °F 29.98 in Calm   1.0 mph 68% 0.00 in CLR
14:40 84.9 °F 71.8 °F 29.97 in Calm   1.0 mph 65% 0.00 in CLR
14:50 84.8 °F 71.8 °F 29.97 in Calm   1.0 mph 65% 0.00 in CLR
15:00 84.1 °F 72.8 °F 29.96 in Calm   1.0 mph 69% 0.00 in CLR
15:10 83.6 °F 72.7 °F 29.96 in Calm   1.0 mph 70% 0.00 in CLR
15:20 83.4 °F 72.1 °F 29.96 in Calm   3.0 mph 69% 0.00 in CLR
15:30 83.6 °F 71.9 °F 29.96 in Calm   1.0 mph 68% 0.00 in CLR
15:40 84.0 °F 71.4 °F 29.95 in Calm     66% 0.00 in CLR
15:50 84.1 °F 72.0 °F 29.94 in West 1.0 mph 2.0 mph 67% 0.00 in CLR
16:00 84.3 °F 72.1 °F 29.94 in Calm   1.0 mph 67% 0.00 in CLR
16:10 83.9 °F 71.3 °F 29.94 in Calm   1.0 mph 66% 0.00 in CLR
16:20 83.8 °F 72.1 °F 29.94 in Calm     68% 0.00 in CLR
16:30 83.9 °F 72.2 °F 29.94 in Calm   1.0 mph 68% 0.00 in CLR
16:50 83.6 °F 72.3 °F 29.94 in Calm     69% 0.00 in CLR
17:00 82.5 °F 72.5 °F 29.94 in Calm     72% 0.00 in CLR
17:10 80.8 °F 73.0 °F 29.97 in Calm   1.0 mph 77% 0.07 in RA
17:20 76.6 °F 71.8 °F 29.97 in Calm   2.0 mph 85% 0.17 in RA
17:30 74.8 °F 70.3 °F 29.97 in Calm   2.0 mph 86% 0.14 in RA
17:40 73.2 °F 69.4 °F 29.97 in Calm   2.0 mph 88% 0.14 in RA
17:50 72.7 °F 69.6 °F 29.97 in Calm   1.0 mph 90% 0.13 in RA
18:00 72.8 °F 70.0 °F 29.98 in Calm   1.0 mph 91% 0.10 in RA
18:10 72.9 °F 70.4 °F 29.98 in Calm   1.0 mph 92% 0.08 in RA
18:20 72.7 °F 70.3 °F 29.97 in Calm     92% 0.01 in CLR
18:30 72.6 °F 70.1 °F 29.97 in Calm   1.0 mph 92% 0.00 in CLR
18:40 72.8 °F 70.3 °F 29.97 in Calm     92% 0.00 in CLR
18:50 72.7 °F 70.2 °F 29.98 in Calm     92% 0.00 in CLR
19:00 72.7 °F 70.2 °F 29.98 in Calm   1.0 mph 92% 0.00 in CLR
19:10 72.7 °F 70.2 °F 29.99 in Calm   1.0 mph 92% 0.00 in CLR
19:20 72.9 °F 70.8 °F 29.99 in Calm     93% 0.01 in CLR
19:30 73.1 °F 71.0 °F 29.99 in Calm     93% 0.00 in CLR
19:40 73.2 °F 71.1 °F 29.99 in Calm     93% 0.00 in CLR
19:50 73.2 °F 71.1 °F 29.99 in Calm     93% 0.00 in CLR
20:00 73.3 °F 71.2 °F 29.99 in Calm     93% 0.00 in CLR
20:10 73.3 °F 71.2 °F 29.99 in Calm     93% 0.00 in CLR
20:20 73.3 °F 71.2 °F 29.99 in Calm     93% 0.00 in CLR
20:30 73.3 °F 71.2 °F 29.99 in Calm     93% 0.00 in CLR
20:40 73.4 °F 71.3 °F 30.00 in Calm     93% 0.00 in CLR
20:50 73.5 °F 71.4 °F 30.01 in Calm     93% 0.00 in CLR
21:00 73.7 °F 71.5 °F 30.01 in Calm     93% 0.00 in CLR
21:10 73.7 °F 71.5 °F 30.00 in Calm     93% 0.00 in CLR
21:20 73.6 °F 71.4 °F 30.00 in Calm     93% 0.00 in CLR
21:30 73.6 °F 71.4 °F 30.00 in Calm     93% 0.00 in CLR
21:40 73.5 °F 71.3 °F 30.00 in Calm     93% 0.00 in CLR
21:50 73.3 °F 71.2 °F 30.00 in Calm     93% 0.00 in CLR
22:00 73.2 °F 71.0 °F 30.01 in Calm     93% 0.00 in CLR
22:10 73.0 °F 70.9 °F 30.01 in Calm     93% 0.00 in CLR
22:20 72.9 °F 70.8 °F 30.02 in Calm     93% 0.00 in CLR
22:30 72.9 °F 70.8 °F 30.02 in Calm     93% 0.00 in CLR
22:40 73.0 °F 70.8 °F 30.02 in Calm     93% 0.00 in CLR
22:50 72.8 °F 70.7 °F 30.03 in Calm     93% 0.00 in CLR
23:00 72.9 °F 70.8 °F 30.03 in Calm     93% 0.00 in CLR
23:10 72.9 °F 70.8 °F 30.03 in Calm   1.0 mph 93% 0.00 in CLR
23:20 72.8 °F 70.7 °F 30.04 in Calm     93% 0.00 in CLR
23:30 72.7 °F 70.6 °F 30.04 in Calm     93% 0.00 in CLR
23:40 72.6 °F 70.5 °F 30.04 in Calm     93% 0.00 in CLR
23:50 72.5 °F 70.4 °F 30.05 in Calm     93% 0.00 in CLR
Piedmont Bend
Compliments of Weather Underground - 2 mb